Time;durP1;ratioP1;P1;durP2;ratioP2;P2;SDS_P1;SDS_P2;PMS_P1;PMS_P2;Temp;Humidity;BMP_temperature;BMP_pressure;BME280_temperature;BME280_humidity;BME280_pressure;Samples;Min_cycle;Max_cycle;Signal;HPM_P1;HPM_P2
2023/09/09 00:00:52;;;;;;;3.83;2.92;;;;;;;28.15;37.37;99239.88;4992137;28;20046;-70
2023/09/09 00:03:19;;;;;;;4.35;2.85;;;;;;;28.17;37.57;99236.22;4991288;28;20081;-70
2023/09/09 00:05:44;;;;;;;4.20;2.78;;;;;;;28.13;37.27;99236.50;4995853;28;20030;-70
2023/09/09 00:08:09;;;;;;;4.35;3.10;;;;;;;28.13;37.27;99236.50;4986681;28;20019;-71
2023/09/09 00:10:36;;;;;;;3.75;3.00;;;;;;;28.12;37.27;99229.47;4989451;28;20037;-69
2023/09/09 00:13:06;;;;;;;3.92;2.90;;;;;;;28.13;37.33;99230.31;4992628;28;20049;-71
2023/09/09 00:15:33;;;;;;;4.50;3.40;;;;;;;28.10;37.45;99218.03;4992285;28;20022;-70
2023/09/09 00:17:59;;;;;;;4.15;2.95;;;;;;;28.09;37.25;99219.00;4994467;28;20018;-71
2023/09/09 00:20:29;;;;;;;4.03;2.72;;;;;;;28.09;37.56;99224.38;4979694;28;20550;-71
2023/09/09 00:22:55;;;;;;;4.38;3.17;;;;;;;28.09;37.35;99224.38;4979744;28;20022;-69
2023/09/09 00:25:21;;;;;;;4.50;3.15;;;;;;;28.08;37.85;99227.22;4985745;28;20069;-70
2023/09/09 00:27:46;;;;;;;4.13;3.05;;;;;;;28.08;37.46;99227.22;4996570;28;20026;-71
2023/09/09 00:30:12;;;;;;;3.92;2.80;;;;;;;28.07;37.55;99231.72;4979664;28;20100;-71
2023/09/09 00:32:37;;;;;;;3.85;2.72;;;;;;;28.06;37.39;99227.38;4979443;28;20526;-71
2023/09/09 00:35:03;;;;;;;3.75;3.00;;;;;;;28.04;37.49;99220.44;4978418;28;20058;-70
2023/09/09 00:37:29;;;;;;;4.05;2.90;;;;;;;28.04;37.49;99224.00;4979738;28;20027;-70
2023/09/09 00:39:54;;;;;;;4.28;3.13;;;;;;;28.03;37.90;99219.59;4998628;28;20026;-71
2023/09/09 00:42:20;;;;;;;3.70;2.67;;;;;;;28.02;38.22;99220.59;4998486;28;20038;-70
2023/09/09 00:44:45;;;;;;;3.83;3.13;;;;;;;28.02;37.61;99223.28;4998858;28;20033;-69
2023/09/09 00:47:11;;;;;;;4.32;3.45;;;;;;;28.02;37.58;99217.91;4998961;28;20022;-69
2023/09/09 00:49:36;;;;;;;4.30;2.92;;;;;;;28.02;37.75;99215.22;4998905;28;20056;-69
2023/09/09 00:52:02;;;;;;;4.22;2.40;;;;;;;28.03;37.83;99216.91;4998551;28;20034;-69
2023/09/09 00:54:27;;;;;;;4.70;3.00;;;;;;;28.03;37.50;99222.28;4998914;28;20026;-70
2023/09/09 00:56:58;;;;;;;4.32;2.83;;;;;;;28.02;37.79;99217.91;4998349;28;20360;-70
2023/09/09 00:59:24;;;;;;;3.80;2.72;;;;;;;28.01;37.70;99210.84;4995314;28;20027;-70
2023/09/09 01:01:49;;;;;;;3.95;2.75;;;;;;;28.04;37.61;99215.09;4998498;28;20046;-70
2023/09/09 01:04:15;;;;;;;3.92;3.00;;;;;;;28.03;37.82;99211.53;5001229;28;20073;-70
2023/09/09 01:06:41;;;;;;;3.90;3.03;;;;;;;28.05;37.93;99216.78;5016371;28;20475;-71
2023/09/09 01:09:08;;;;;;;4.68;3.17;;;;;;;28.02;37.59;99217.91;4990255;28;20030;-71
2023/09/09 01:11:34;;;;;;;3.90;2.95;;;;;;;28.03;37.83;99214.22;4997058;28;20117;-68
2023/09/09 01:13:59;;;;;;;4.50;3.08;;;;;;;28.01;37.88;99210.84;4997382;28;20122;-71
2023/09/09 01:16:26;;;;;;;4.28;3.17;;;;;;;28.01;37.71;99221.59;4998700;28;20068;-71
2023/09/09 01:18:51;;;;;;;4.15;3.03;;;;;;;27.98;37.54;99216.50;4998440;28;20101;-70
2023/09/09 01:21:19;;;;;;;4.05;3.28;;;;;;;28.00;37.59;99211.84;4998759;28;20398;-71
2023/09/09 01:23:45;;;;;;;4.20;2.75;;;;;;;27.99;37.51;99213.69;4998279;28;20035;-70
2023/09/09 01:26:10;;;;;;;3.70;2.80;;;;;;;28.00;37.81;99207.31;4998220;28;20594;-71
2023/09/09 01:28:36;;;;;;;3.67;2.90;;;;;;;28.00;37.54;99210.00;4987704;28;20054;-72
2023/09/09 01:31:02;;;;;;;5.20;3.38;;;;;;;28.01;37.80;99211.72;4976087;28;20525;-70
2023/09/09 01:33:27;;;;;;;4.35;2.95;;;;;;;28.02;37.53;99212.53;4982822;28;20033;-71
2023/09/09 01:35:53;;;;;;;4.50;3.60;;;;;;;28.00;37.98;99207.31;4995433;28;20037;-70
2023/09/09 01:38:18;;;;;;;4.65;3.03;;;;;;;27.99;37.94;99210.16;4989910;28;20027;-71
2023/09/09 01:40:44;;;;;;;3.90;3.03;;;;;;;27.99;37.88;99207.50;4975793;28;20104;-70
2023/09/09 01:43:09;;;;;;;4.95;3.63;;;;;;;27.99;37.92;99207.50;4980449;28;20022;-71
2023/09/09 01:45:35;;;;;;;4.28;3.30;;;;;;;27.98;37.63;99203.09;4995412;28;20031;-70
2023/09/09 01:48:00;;;;;;;3.90;3.10;;;;;;;27.99;37.50;99202.13;4992389;28;20022;-70
2023/09/09 01:50:26;;;;;;;4.00;3.10;;;;;;;27.99;37.65;99202.13;4975869;28;20023;-70
2023/09/09 01:52:52;;;;;;;4.38;3.20;;;;;;;27.98;37.99;99195.03;4975685;28;20030;-71
2023/09/09 01:55:17;;;;;;;4.15;2.95;;;;;;;27.95;37.98;99200.72;4980833;28;20050;-70
2023/09/09 01:57:43;;;;;;;4.00;2.80;;;;;;;27.96;37.67;99192.53;4995077;28;20390;-70
2023/09/09 02:00:09;;;;;;;3.72;2.75;;;;;;;27.97;37.52;99198.72;4994967;28;20029;-70
2023/09/09 02:02:35;;;;;;;4.95;3.30;;;;;;;27.94;37.84;99197.19;4994356;28;20046;-69
2023/09/09 02:05:01;;;;;;;5.10;3.47;;;;;;;27.95;37.77;99200.72;5003610;28;20025;-70
2023/09/09 02:07:27;;;;;;;4.32;3.28;;;;;;;27.95;37.70;99195.34;5014427;28;20394;-73
2023/09/09 02:09:52;;;;;;;4.57;3.10;;;;;;;27.93;37.73;99192.81;4994690;28;20387;-70
2023/09/09 02:12:18;;;;;;;4.10;3.05;;;;;;;27.93;37.78;99197.34;4993280;28;20030;-70
2023/09/09 02:14:43;;;;;;;4.45;3.65;;;;;;;27.92;37.90;99195.63;4994546;28;20029;-71
2023/09/09 02:17:09;;;;;;;4.40;3.30;;;;;;;27.88;37.64;99198.63;4994661;28;20026;-70
2023/09/09 02:19:35;;;;;;;4.40;2.97;;;;;;;27.91;37.63;99196.63;4979489;28;20045;-70
2023/09/09 02:22:00;;;;;;;4.70;3.00;;;;;;;27.88;37.81;99201.31;4975239;28;20109;-70
2023/09/09 02:24:26;;;;;;;4.05;3.20;;;;;;;27.87;37.69;99207.66;4974702;28;20113;-70
2023/09/09 02:26:51;;;;;;;4.45;3.47;;;;;;;27.88;37.64;99205.81;4975165;28;20031;-70
2023/09/09 02:29:17;;;;;;;3.85;3.03;;;;;;;27.87;37.81;99204.97;4985618;28;20081;-70
2023/09/09 02:31:42;;;;;;;4.90;3.17;;;;;;;27.87;37.79;99204.97;4994629;28;20030;-70
2023/09/09 02:34:08;;;;;;;3.53;2.72;;;;;;;27.87;37.73;99204.97;4993053;28;20034;-70
2023/09/09 02:36:33;;;;;;;4.18;3.20;;;;;;;27.84;37.98;99199.91;4992817;28;20380;-70
2023/09/09 02:38:59;;;;;;;4.18;3.10;;;;;;;27.85;38.01;99201.56;4993494;28;20109;-69
2023/09/09 02:41:24;;;;;;;4.05;3.00;;;;;;;27.85;37.96;99201.56;4993986;28;20030;-70
2023/09/09 02:43:49;;;;;;;4.00;2.88;;;;;;;27.82;37.85;99196.53;4994152;28;20479;-70
2023/09/09 02:46:15;;;;;;;4.43;3.53;;;;;;;27.84;37.88;99194.53;4994090;28;20030;-71
2023/09/09 02:48:40;;;;;;;3.90;2.90;;;;;;;27.83;37.99;99192.84;4994159;28;20383;-69
2023/09/09 02:51:06;;;;;;;4.72;3.47;;;;;;;27.82;37.82;99201.03;4994053;28;20380;-70
2023/09/09 02:53:31;;;;;;;4.00;3.13;;;;;;;27.81;37.82;99197.53;4993547;28;20088;-70
2023/09/09 02:55:57;;;;;;;4.47;3.15;;;;;;;27.82;37.77;99201.88;4993810;28;20037;-71
2023/09/09 02:58:22;;;;;;;4.18;3.38;;;;;;;27.81;37.91;99205.56;4989103;28;20018;-70
2023/09/09 03:00:47;;;;;;;4.32;3.33;;;;;;;27.81;38.21;99199.34;4991743;28;20037;-70
2023/09/09 03:03:15;;;;;;;4.47;3.25;;;;;;;27.78;38.08;99205.84;4978044;28;20046;-68
2023/09/09 03:05:41;;;;;;;3.90;3.08;;;;;;;27.80;38.03;99209.22;5002171;28;20484;-70
2023/09/09 03:08:06;;;;;;;4.55;3.13;;;;;;;27.81;37.68;99202.03;5010493;28;20018;-70
2023/09/09 03:10:32;;;;;;;4.22;3.15;;;;;;;27.80;37.73;99211.88;4992303;28;20084;-71
2023/09/09 03:12:58;;;;;;;3.92;3.10;;;;;;;27.80;37.60;99209.22;4993462;28;20128;-70
2023/09/09 03:15:24;;;;;;;4.35;3.28;;;;;;;27.76;37.92;99207.81;4991823;28;20975;-70
2023/09/09 03:17:49;;;;;;;4.25;3.17;;;;;;;27.77;37.89;99209.50;4993509;28;20050;-71
2023/09/09 03:20:15;;;;;;;4.38;3.38;;;;;;;27.77;37.73;99204.16;4974133;28;20410;-70
2023/09/09 03:22:40;;;;;;;4.40;3.40;;;;;;;27.75;37.74;99214.19;4973796;28;20157;-71
2023/09/09 03:25:07;;;;;;;4.45;3.03;;;;;;;27.74;38.06;99215.16;4974114;28;20027;-69
2023/09/09 03:27:33;;;;;;;4.68;3.03;;;;;;;27.73;38.21;99219.69;4981275;28;20430;-70
2023/09/09 03:29:58;;;;;;;4.07;3.10;;;;;;;27.73;38.11;99214.31;4993374;28;20079;-71
2023/09/09 03:32:25;;;;;;;4.60;3.05;;;;;;;27.74;37.74;99215.16;4993077;28;20081;-71
2023/09/09 03:34:51;;;;;;;3.85;3.20;;;;;;;27.74;38.11;99209.78;4993413;28;20030;-70
2023/09/09 03:37:17;;;;;;;4.40;3.28;;;;;;;27.73;37.62;99208.09;4992819;28;20034;-70
2023/09/09 03:39:42;;;;;;;4.30;3.50;;;;;;;27.73;37.76;99208.09;4978191;28;20105;-69
2023/09/09 03:42:08;;;;;;;4.00;3.13;;;;;;;27.74;37.69;99201.75;4985914;28;20026;-70
2023/09/09 03:44:33;;;;;;;4.15;3.22;;;;;;;27.75;37.75;99200.78;4993134;28;20022;-69
2023/09/09 03:46:58;;;;;;;6.15;3.80;;;;;;;27.71;37.59;99196.69;4991661;28;20026;-70
2023/09/09 03:49:24;;;;;;;4.22;3.05;;;;;;;27.71;37.96;99197.50;4980896;28;20026;-70
2023/09/09 03:51:50;;;;;;;4.30;3.22;;;;;;;27.70;38.13;99203.88;4972737;28;20026;-70
2023/09/09 03:54:16;;;;;;;3.88;3.08;;;;;;;27.70;38.18;99208.41;4973513;28;20109;-70
2023/09/09 03:56:41;;;;;;;4.07;3.15;;;;;;;27.66;37.80;99202.50;4973622;28;20443;-71
2023/09/09 03:59:06;;;;;;;4.32;2.92;;;;;;;27.66;37.82;99209.69;4987022;28;20026;-70
2023/09/09 04:01:32;;;;;;;3.85;3.10;;;;;;;27.66;37.96;99202.50;4992829;28;20046;-72
2023/09/09 04:03:57;;;;;;;3.95;3.15;;;;;;;27.68;37.81;99199.66;4990755;28;20430;-70
2023/09/09 04:06:23;;;;;;;4.50;3.03;;;;;;;27.66;38.06;99197.13;5012085;28;20402;-68
2023/09/09 04:08:55;;;;;;;4.13;2.80;;;;;;;27.66;38.10;99201.63;5005151;28;20379;-71
2023/09/09 04:11:20;;;;;;;4.10;3.05;;;;;;;27.64;38.08;99198.25;4992785;28;20049;-71
2023/09/09 04:13:46;;;;;;;3.88;3.20;;;;;;;27.63;38.25;99201.91;4992628;28;20129;-70
2023/09/09 04:16:11;;;;;;;3.70;3.05;;;;;;;27.65;37.85;99199.94;4993076;28;20422;-70
2023/09/09 04:18:37;;;;;;;3.88;3.22;;;;;;;27.64;38.15;99207.13;4992675;28;20403;-69
2023/09/09 04:21:02;;;;;;;4.80;3.33;;;;;;;27.65;37.90;99205.31;4992127;28;20482;-70
2023/09/09 04:23:27;;;;;;;3.90;3.17;;;;;;;27.63;38.16;99191.19;4992366;28;20077;-70
2023/09/09 04:25:53;;;;;;;4.45;3.22;;;;;;;27.61;37.98;99194.03;4992624;28;20018;-70
2023/09/09 04:28:18;;;;;;;3.95;3.00;;;;;;;27.59;38.22;99175.41;4989862;28;20106;-70
2023/09/09 04:30:45;;;;;;;3.65;2.97;;;;;;;27.59;38.10;99186.13;4989725;28;20483;-69
2023/09/09 04:33:11;;;;;;;5.07;3.38;;;;;;;27.58;38.16;99189.81;4992401;28;20034;-69
2023/09/09 04:35:41;;;;;;;3.88;2.88;;;;;;;27.57;38.22;99188.09;4992255;28;20022;-70
2023/09/09 04:38:07;;;;;;;4.32;3.38;;;;;;;27.57;38.17;99188.09;4991269;28;20014;-71
2023/09/09 04:40:34;;;;;;;3.53;3.00;;;;;;;27.53;37.91;99192.03;4988253;28;20368;-70
2023/09/09 04:42:59;;;;;;;4.00;3.15;;;;;;;27.52;38.33;99190.34;4992519;28;20023;-71
2023/09/09 04:45:24;;;;;;;4.22;3.20;;;;;;;27.51;38.13;99183.31;4992397;28;20037;-70
2023/09/09 04:47:53;;;;;;;4.38;3.58;;;;;;;27.51;38.16;99188.66;4992580;28;20061;-70
2023/09/09 04:50:19;;;;;;;4.80;3.22;;;;;;;27.50;37.96;99186.94;4973344;28;20113;-70
2023/09/09 04:52:45;;;;;;;4.13;2.80;;;;;;;27.48;38.13;99188.94;4973036;28;20027;-70
2023/09/09 04:55:10;;;;;;;4.20;3.28;;;;;;;27.49;38.32;99190.63;4987989;28;20062;-70
2023/09/09 04:57:36;;;;;;;4.97;3.50;;;;;;;27.46;38.05;99185.56;4972979;28;20062;-70
2023/09/09 05:00:06;;;;;;;4.22;3.20;;;;;;;27.49;38.23;99193.31;4988662;28;20072;-70
2023/09/09 05:02:32;;;;;;;4.38;3.22;;;;;;;27.47;38.21;99185.41;4992430;28;20127;-70
2023/09/09 05:04:57;;;;;;;3.78;3.08;;;;;;;27.45;37.96;99194.59;5003236;28;20465;-70
2023/09/09 05:07:23;;;;;;;4.10;3.10;;;;;;;27.43;38.10;99191.19;5013466;28;20072;-69
2023/09/09 05:09:48;;;;;;;4.25;3.17;;;;;;;27.44;38.21;99198.25;4988679;28;20479;-70
2023/09/09 05:12:14;;;;;;;4.80;3.15;;;;;;;27.43;38.01;99191.19;4995807;28;20034;-70
2023/09/09 05:14:39;;;;;;;5.25;3.40;;;;;;;27.42;38.07;99189.50;4995296;28;20025;-70
2023/09/09 05:17:05;;;;;;;5.18;3.60;;;;;;;27.40;38.11;99191.50;4996037;28;20026;-71
2023/09/09 05:19:31;;;;;;;4.20;3.30;;;;;;;27.39;38.18;99195.13;4995556;28;20596;-71
2023/09/09 05:21:56;;;;;;;4.18;3.08;;;;;;;27.37;38.20;99199.81;4995826;28;20077;-71
2023/09/09 05:24:21;;;;;;;4.78;3.40;;;;;;;27.36;38.20;99204.34;4995476;28;20437;-70
2023/09/09 05:26:47;;;;;;;4.97;3.28;;;;;;;27.33;38.38;99199.25;4981492;28;20054;-70
2023/09/09 05:29:12;;;;;;;3.95;3.08;;;;;;;27.33;38.26;99208.13;4980560;28;20027;-71
2023/09/09 05:31:38;;;;;;;4.50;3.63;;;;;;;27.31;38.43;99209.25;4995699;28;20054;-70
2023/09/09 05:34:03;;;;;;;3.90;3.08;;;;;;;27.31;38.31;99210.09;4994973;28;20030;-70
2023/09/09 05:36:29;;;;;;;4.28;3.20;;;;;;;27.31;38.48;99211.94;4995696;28;20019;-70
2023/09/09 05:38:59;;;;;;;4.10;3.25;;;;;;;27.33;38.20;99213.50;4995406;28;20387;-70
2023/09/09 05:41:27;;;;;;;4.93;3.78;;;;;;;27.33;38.33;99216.19;4993020;28;20042;-69
2023/09/09 05:43:52;;;;;;;4.10;3.28;;;;;;;27.35;38.13;99226.72;4993995;28;20030;-71
2023/09/09 05:46:18;;;;;;;3.97;3.10;;;;;;;27.37;38.35;99229.28;4994886;28;20399;-70
2023/09/09 05:48:44;;;;;;;4.20;3.20;;;;;;;27.34;38.17;99225.91;4994725;28;20556;-70
2023/09/09 05:51:09;;;;;;;4.43;3.50;;;;;;;27.34;38.38;99225.91;4995411;28;20022;-70
2023/09/09 05:53:34;;;;;;;3.72;3.00;;;;;;;27.36;38.28;99227.59;4994926;28;20034;-70
2023/09/09 05:56:00;;;;;;;3.97;3.20;;;;;;;27.36;38.16;99230.25;4995373;28;20025;-70
2023/09/09 05:58:25;;;;;;;4.28;2.80;;;;;;;27.34;38.50;99241.97;4993731;28;20026;-70
2023/09/09 06:00:50;;;;;;;4.70;3.50;;;;;;;27.36;38.31;99235.63;4994910;28;20463;-68
2023/09/09 06:03:16;;;;;;;4.38;3.55;;;;;;;27.36;38.03;99243.66;4990759;28;20042;-70
2023/09/09 06:05:43;;;;;;;4.32;3.53;;;;;;;27.30;38.16;99240.56;5003804;28;20520;-70
2023/09/09 06:08:08;;;;;;;4.57;3.53;;;;;;;27.35;38.46;99242.81;5002448;28;20026;-70
2023/09/09 06:10:33;;;;;;;4.45;3.10;;;;;;;27.33;38.17;99234.94;4993593;28;20041;-70
2023/09/09 06:12:59;;;;;;;4.22;3.10;;;;;;;27.35;38.44;99237.44;4994830;28;20030;-70
2023/09/09 06:15:24;;;;;;;4.38;3.30;;;;;;;27.34;38.45;99239.28;4994167;28;20022;-69
2023/09/09 06:17:49;;;;;;;4.75;3.33;;;;;;;27.31;38.35;99236.06;4994591;28;20038;-70
2023/09/09 06:20:15;;;;;;;4.95;3.40;;;;;;;27.33;38.52;99234.06;4994794;28;20425;-69
2023/09/09 06:22:40;;;;;;;4.85;3.33;;;;;;;27.30;38.28;99235.19;4993788;28;20057;-71
2023/09/09 06:25:06;;;;;;;5.25;3.55;;;;;;;27.31;38.53;99233.38;4975079;28;20389;-70
2023/09/09 06:27:31;;;;;;;5.25;3.55;;;;;;;27.32;38.34;99238.56;4992955;28;20023;-70
2023/09/09 06:29:57;;;;;;;4.20;3.35;;;;;;;27.30;38.50;99235.19;4994597;28;20399;-70
2023/09/09 06:32:22;;;;;;;4.97;3.60;;;;;;;27.29;38.58;99241.53;4993770;28;20026;-71
2023/09/09 06:34:48;;;;;;;4.70;3.70;;;;;;;27.30;38.71;99237.88;4994382;28;20030;-70
2023/09/09 06:37:13;;;;;;;4.15;3.08;;;;;;;27.29;38.70;99248.72;4994480;28;20060;-70
2023/09/09 06:39:39;;;;;;;4.72;3.65;;;;;;;27.31;38.61;99246.78;4978276;28;20510;-70
2023/09/09 06:42:05;;;;;;;4.20;3.40;;;;;;;27.29;38.56;99257.63;4992876;28;20026;-70
2023/09/09 06:44:31;;;;;;;4.50;3.30;;;;;;;27.29;38.74;99252.25;4994236;28;20018;-71
2023/09/09 06:46:56;;;;;;;4.22;3.17;;;;;;;27.30;38.53;99256.63;4994030;28;20034;-69
2023/09/09 06:49:22;;;;;;;4.15;3.22;;;;;;;27.30;38.73;99253.94;4994122;28;20398;-70
2023/09/09 06:51:47;;;;;;;5.03;3.70;;;;;;;27.32;38.55;99265.34;4994357;28;20034;-70
2023/09/09 06:54:12;;;;;;;3.47;2.97;;;;;;;27.31;38.39;99262.84;4992397;28;20041;-70
2023/09/09 06:56:38;;;;;;;4.22;3.22;;;;;;;27.32;38.45;99265.34;4993897;28;20105;-70
2023/09/09 06:59:03;;;;;;;5.50;3.40;;;;;;;27.32;38.52;99268.03;4994150;28;20058;-70
2023/09/09 07:01:29;;;;;;;3.92;3.10;;;;;;;27.34;38.42;99263.41;4993316;28;20033;-70
2023/09/09 07:03:54;;;;;;;5.70;3.97;;;;;;;27.34;38.57;99258.03;4991741;28;20061;-70
2023/09/09 07:06:20;;;;;;;5.57;3.55;;;;;;;27.33;38.41;99256.34;5012963;28;20010;-69
2023/09/09 07:08:47;;;;;;;4.88;3.53;;;;;;;27.32;38.69;99260.00;5011427;28;20018;-70
2023/09/09 07:11:12;;;;;;;4.88;3.47;;;;;;;27.34;38.77;99268.75;4993898;28;20030;-70
2023/09/09 07:13:38;;;;;;;4.18;3.38;;;;;;;27.33;38.60;99263.53;4993498;28;20049;-71
2023/09/09 07:16:03;;;;;;;4.80;3.55;;;;;;;27.36;38.41;99262.41;4986264;28;20050;-71
2023/09/09 07:18:29;;;;;;;5.75;3.67;;;;;;;27.36;38.41;99262.41;4988129;28;20344;-69
2023/09/09 07:20:57;;;;;;;4.55;3.60;;;;;;;27.34;38.56;99258.03;4992225;28;20022;-70
2023/09/09 07:23:22;;;;;;;4.55;3.58;;;;;;;27.37;38.62;99258.75;4993388;28;20029;-70
2023/09/09 07:25:48;;;;;;;5.28;3.33;;;;;;;27.34;38.65;99268.75;4992824;28;20022;-69
2023/09/09 07:28:14;;;;;;;4.63;3.65;;;;;;;27.37;38.67;99264.09;4991457;28;20023;-68
2023/09/09 07:30:39;;;;;;;4.90;3.60;;;;;;;27.37;38.46;99256.06;4990053;28;20026;-70
2023/09/09 07:33:05;;;;;;;5.57;3.60;;;;;;;27.36;38.83;99255.22;4992711;28;20031;-70
2023/09/09 07:35:31;;;;;;;4.28;3.55;;;;;;;27.38;38.79;99257.75;4993376;28;20109;-70
2023/09/09 07:37:56;;;;;;;4.60;3.47;;;;;;;27.40;38.57;99255.78;4993271;28;20061;-70
2023/09/09 07:40:21;;;;;;;4.43;3.47;;;;;;;27.40;38.86;99263.84;4993039;28;20041;-69
2023/09/09 07:42:48;;;;;;;4.30;3.42;;;;;;;27.40;38.62;99267.34;4992500;28;20483;-70
2023/09/09 07:45:14;;;;;;;4.28;3.55;;;;;;;27.41;38.81;99279.75;4993209;28;20030;-70
2023/09/09 07:47:39;;;;;;;5.25;3.63;;;;;;;27.42;38.58;99275.25;4992782;28;20393;-70
2023/09/09 07:50:05;;;;;;;4.50;3.50;;;;;;;27.44;38.74;99275.94;4992823;28;20026;-70
2023/09/09 07:52:31;;;;;;;5.03;3.45;;;;;;;27.45;38.36;99280.34;4992678;28;20027;-70
2023/09/09 07:54:57;;;;;;;4.47;3.17;;;;;;;27.47;38.50;99273.00;4991715;28;20026;-70
2023/09/09 07:57:23;;;;;;;4.38;3.40;;;;;;;27.47;38.57;99273.00;4992000;28;20114;-70
2023/09/09 07:59:48;;;;;;;4.25;3.35;;;;;;;27.47;38.94;99273.81;4993273;28;20093;-72
2023/09/09 08:02:14;;;;;;;4.05;3.47;;;;;;;27.48;38.74;99280.03;4992845;28;20038;-70
2023/09/09 08:04:39;;;;;;;4.60;3.72;;;;;;;27.49;38.60;99281.72;4998318;28;20072;-70
2023/09/09 08:07:05;;;;;;;5.22;3.25;;;;;;;27.50;38.56;99279.91;5011166;28;20022;-70
2023/09/09 08:09:31;;;;;;;4.03;3.25;;;;;;;27.52;38.52;99286.81;4997883;28;20049;-70
2023/09/09 08:11:56;;;;;;;4.65;3.83;;;;;;;27.53;38.79;99287.63;4992329;28;20505;-69
2023/09/09 08:14:22;;;;;;;4.65;3.45;;;;;;;27.52;38.61;99286.81;4992524;28;20057;-70
2023/09/09 08:16:47;;;;;;;4.97;3.58;;;;;;;27.54;38.62;99286.66;4992883;28;20026;-71
2023/09/09 08:19:12;;;;;;;4.57;3.70;;;;;;;27.53;38.27;99283.16;4992728;28;20058;-70
2023/09/09 08:21:38;;;;;;;6.30;4.22;;;;;;;27.55;38.27;99286.50;4992701;28;20033;-70
2023/09/09 08:24:03;;;;;;;5.10;3.63;;;;;;;27.55;38.56;99286.50;4992781;28;20475;-70
2023/09/09 08:26:29;;;;;;;4.45;3.90;;;;;;;27.55;38.65;99286.50;4992103;28;20495;-71
2023/09/09 08:28:55;;;;;;;5.78;3.78;;;;;;;27.58;38.46;99290.78;4992526;28;20038;-70
2023/09/09 08:31:21;;;;;;;4.68;3.45;;;;;;;27.56;38.13;99298.91;4992600;28;20034;-70
2023/09/09 08:33:46;;;;;;;4.85;3.20;;;;;;;27.57;38.52;99289.94;4992607;28;20034;-70
2023/09/09 08:36:12;;;;;;;4.35;3.70;;;;;;;27.57;38.40;99295.28;5007375;28;20410;-70
2023/09/09 08:38:38;;;;;;;4.80;3.58;;;;;;;27.56;38.31;99293.56;4995321;28;20065;-70
2023/09/09 08:41:07;;;;;;;4.45;3.63;;;;;;;27.57;38.54;99294.41;4996365;28;20027;-70
2023/09/09 08:43:43;;;;;;;4.63;3.38;;;;;;;27.57;38.55;99300.66;4996551;28;20398;-71
2023/09/09 08:46:16;;;;;;;4.57;3.65;;;;;;;27.57;38.48;99300.66;4996360;28;20376;-70
2023/09/09 08:48:43;;;;;;;4.10;3.25;;;;;;;27.58;38.56;99301.50;4996601;28;20022;-73
2023/09/09 08:51:14;;;;;;;5.32;3.60;;;;;;;27.57;38.29;99299.78;4996058;28;20097;-71
2023/09/09 08:53:41;;;;;;;4.95;3.92;;;;;;;27.56;38.24;99301.59;4995908;28;20037;-71
2023/09/09 08:56:07;;;;;;;4.53;3.53;;;;;;;27.57;38.44;99289.94;4976299;28;20066;-71
2023/09/09 08:58:32;;;;;;;4.65;3.60;;;;;;;27.58;38.41;99302.38;4976926;28;20093;-72
2023/09/09 09:00:59;;;;;;;4.38;3.45;;;;;;;27.60;38.48;99300.38;4994481;28;20022;-71
2023/09/09 09:03:26;;;;;;;4.68;3.85;;;;;;;27.59;38.25;99293.31;4995618;28;20581;-70
2023/09/09 09:05:54;;;;;;;5.20;4.00;;;;;;;27.61;38.32;99302.06;5011460;28;20555;-72
2023/09/09 09:08:20;;;;;;;5.40;3.85;;;;;;;27.64;38.38;99290.22;5015708;28;20493;-71
2023/09/09 09:10:47;;;;;;;4.95;3.50;;;;;;;27.64;38.23;99292.06;5015179;28;20026;-70
2023/09/09 09:13:13;;;;;;;5.95;3.63;;;;;;;27.64;38.37;99294.75;5007661;28;20034;-70
2023/09/09 09:15:40;;;;;;;4.63;3.70;;;;;;;27.65;38.03;99288.38;4995983;28;20037;-71
2023/09/09 09:18:07;;;;;;;5.10;4.20;;;;;;;27.67;38.22;99292.63;4994369;28;20113;-71
2023/09/09 09:20:33;;;;;;;5.28;3.40;;;;;;;27.69;38.47;99292.50;4995878;28;20095;-71
2023/09/09 09:23:04;;;;;;;4.68;3.40;;;;;;;27.69;38.37;99287.13;4995703;28;20062;-71
2023/09/09 09:25:45;;;;;;;4.53;3.33;;;;;;;27.71;38.12;99295.88;4995471;28;20037;-71
2023/09/09 09:28:15;;;;;;;5.15;4.00;;;;;;;27.72;38.13;99292.19;4996478;28;20022;-70
2023/09/09 09:30:41;;;;;;;4.75;3.75;;;;;;;27.73;38.43;99293.88;4995535;28;20541;-72
2023/09/09 09:33:07;;;;;;;4.70;3.63;;;;;;;27.73;38.48;99304.59;4995453;28;20034;-71
2023/09/09 09:35:34;;;;;;;4.60;3.47;;;;;;;27.74;38.23;99304.47;4995326;28;20026;-71
2023/09/09 09:38:12;;;;;;;4.47;3.58;;;;;;;27.75;38.50;99294.59;4995386;28;20546;-72
2023/09/09 09:40:39;;;;;;;4.75;3.60;;;;;;;27.76;38.14;99293.59;4979372;28;20033;-72
2023/09/09 09:43:04;;;;;;;4.18;3.33;;;;;;;27.78;38.25;99286.25;4976053;28;20053;-71
2023/09/09 09:45:30;;;;;;;4.70;3.30;;;;;;;27.77;38.14;99295.28;4975944;28;20070;-72
2023/09/09 09:47:58;;;;;;;4.75;3.60;;;;;;;27.78;38.01;99296.97;4975968;28;20034;-72
2023/09/09 09:50:30;;;;;;;4.28;3.50;;;;;;;27.81;38.13;99295.84;4973717;28;20037;-71
2023/09/09 09:52:58;;;;;;;5.10;3.90;;;;;;;27.81;38.09;99286.00;4986902;28;20034;-71
2023/09/09 09:55:24;;;;;;;4.07;3.17;;;;;;;27.82;37.97;99286.81;4994754;28;20037;-72
2023/09/09 09:57:56;;;;;;;4.60;3.40;;;;;;;27.83;38.17;99289.34;4994556;28;20061;-71
2023/09/09 10:00:23;;;;;;;5.45;3.80;;;;;;;27.85;38.26;99282.00;4994400;28;20123;-72
2023/09/09 10:02:54;;;;;;;4.57;3.50;;;;;;;27.87;38.04;99276.50;4994852;28;20058;-72
2023/09/09 10:05:21;;;;;;;4.50;3.30;;;;;;;27.86;38.21;99281.03;5005967;28;20112;-71
2023/09/09 10:07:52;;;;;;;5.47;3.78;;;;;;;27.86;37.96;99273.00;5014326;28;20037;-71
2023/09/09 10:10:22;;;;;;;5.18;3.63;;;;;;;27.88;38.12;99278.19;5014588;28;20030;-72
2023/09/09 10:12:58;;;;;;;4.20;3.30;;;;;;;27.88;37.98;99265.66;5014227;28;20406;-72
2023/09/09 10:15:25;;;;;;;4.38;3.25;;;;;;;27.90;38.33;99267.34;5014477;28;20022;-72
2023/09/09 10:17:52;;;;;;;4.40;3.47;;;;;;;27.90;38.28;99272.69;5014419;28;20037;-72
2023/09/09 10:20:18;;;;;;;3.90;2.90;;;;;;;27.91;37.96;99269.03;5006533;28;20372;-72
2023/09/09 10:22:45;;;;;;;5.57;3.60;;;;;;;27.91;38.28;99269.03;4994325;28;20062;-71
2023/09/09 10:25:12;;;;;;;4.55;3.00;;;;;;;27.91;37.86;99272.56;4994310;28;20034;-71
2023/09/09 10:27:39;;;;;;;4.55;3.75;;;;;;;27.93;37.98;99256.34;4994581;28;20100;-71
2023/09/09 10:30:09;;;;;;;4.15;3.08;;;;;;;27.94;38.01;99264.22;4994244;28;20113;-71
2023/09/09 10:32:36;;;;;;;3.85;3.13;;;;;;;27.96;38.00;99267.63;4994407;28;20034;-72
2023/09/09 10:35:06;;;;;;;5.55;3.50;;;;;;;27.96;38.15;99256.03;4994572;28;20026;-71
2023/09/09 10:37:36;;;;;;;4.07;3.33;;;;;;;27.95;38.30;99260.56;4992579;28;20554;-72
2023/09/09 10:40:04;;;;;;;4.15;3.00;;;;;;;27.97;37.84;99257.72;4994255;28;20491;-72
2023/09/09 10:42:30;;;;;;;4.43;3.33;;;;;;;27.98;37.73;99270.13;4994038;28;20550;-71
2023/09/09 10:45:18;;;;;;;3.63;2.83;;;;;;;27.99;37.99;99266.47;4994193;28;20490;-71
2023/09/09 10:48:00;;;;;;;5.03;3.13;;;;;;;28.01;37.67;99269.84;4982789;28;20034;-72
2023/09/09 10:50:47;;;;;;;4.38;3.05;;;;;;;28.00;38.00;99274.34;4980137;28;20074;-72
2023/09/09 10:53:14;;;;;;;5.97;3.58;;;;;;;28.02;38.00;99274.22;4974220;28;20039;-71
2023/09/09 10:55:39;;;;;;;4.05;3.03;;;;;;;28.03;38.17;99264.34;4974481;28;20449;-71
2023/09/09 10:58:08;;;;;;;4.50;3.20;;;;;;;28.03;37.55;99265.19;4974627;28;20038;-71
2023/09/09 11:00:39;;;;;;;5.38;3.40;;;;;;;28.03;37.75;99259.81;4974409;28;20030;-71
2023/09/09 11:03:15;;;;;;;4.10;3.15;;;;;;;28.05;37.92;99265.91;4974297;28;20509;-71
2023/09/09 11:06:20;;;;;;;4.90;3.17;;;;;;;28.05;37.68;99249.81;5002026;28;20053;-72
2023/09/09 11:08:47;;;;;;;4.40;2.95;;;;;;;28.07;38.21;99247.81;4972006;28;20034;-72
2023/09/09 11:11:18;;;;;;;3.67;2.80;;;;;;;28.08;38.10;99243.31;4972157;28;20038;-72
2023/09/09 11:13:58;;;;;;;4.53;3.10;;;;;;;28.07;37.82;99247.81;4971794;28;20039;-72
2023/09/09 11:16:24;;;;;;;4.13;3.20;;;;;;;28.08;37.50;99246.81;4971965;28;20041;-71
2023/09/09 11:18:51;;;;;;;4.38;3.20;;;;;;;28.09;37.67;99235.09;4959504;28;20031;-72
2023/09/09 11:21:20;;;;;;;3.95;2.83;;;;;;;28.11;37.94;99243.00;4941710;29;20036;-72
2023/09/09 11:23:47;;;;;;;3.85;3.00;;;;;;;28.10;37.76;99242.19;4933489;29;20506;-72
2023/09/09 11:26:14;;;;;;;5.50;3.25;;;;;;;28.12;37.52;99242.88;4944824;28;20255;-72
2023/09/09 11:28:40;;;;;;;4.32;3.30;;;;;;;28.12;37.96;99229.47;4952578;29;20035;-71
2023/09/09 11:31:13;;;;;;;5.40;3.25;;;;;;;28.13;38.10;99231.13;4952401;29;20101;-72